sensor_id;sensor_type;location;lat;lon;timestamp;P1;durP1;ratioP1;P2;durP2;ratioP2
23376;SDS011;14353;46.070;13.222;2023-04-25T00:00:32;2.08;;;1.75;;
23376;SDS011;14353;46.070;13.222;2023-04-25T00:02:58;1.77;;;1.65;;
23376;SDS011;14353;46.070;13.222;2023-04-25T00:05:24;2.28;;;1.60;;
23376;SDS011;14353;46.070;13.222;2023-04-25T00:07:51;2.20;;;1.80;;
23376;SDS011;14353;46.070;13.222;2023-04-25T00:10:17;1.80;;;1.65;;
23376;SDS011;14353;46.070;13.222;2023-04-25T00:12:43;1.80;;;1.70;;
23376;SDS011;14353;46.070;13.222;2023-04-25T00:15:09;1.90;;;1.80;;
23376;SDS011;14353;46.070;13.222;2023-04-25T00:17:35;1.73;;;1.63;;
23376;SDS011;14353;46.070;13.222;2023-04-25T00:20:03;2.08;;;1.88;;
23376;SDS011;14353;46.070;13.222;2023-04-25T00:22:30;2.33;;;1.60;;
23376;SDS011;14353;46.070;13.222;2023-04-25T00:24:56;2.17;;;1.90;;
23376;SDS011;14353;46.070;13.222;2023-04-25T00:27:25;1.95;;;1.80;;
23376;SDS011;14353;46.070;13.222;2023-04-25T00:29:51;3.67;;;1.77;;
23376;SDS011;14353;46.070;13.222;2023-04-25T00:32:17;1.83;;;1.73;;
23376;SDS011;14353;46.070;13.222;2023-04-25T00:34:42;1.75;;;1.65;;
23376;SDS011;14353;46.070;13.222;2023-04-25T00:37:08;1.85;;;1.75;;
23376;SDS011;14353;46.070;13.222;2023-04-25T00:39:34;1.60;;;1.50;;
23376;SDS011;14353;46.070;13.222;2023-04-25T00:42:00;2.00;;;1.80;;
23376;SDS011;14353;46.070;13.222;2023-04-25T00:44:27;1.80;;;1.50;;
23376;SDS011;14353;46.070;13.222;2023-04-25T00:46:54;2.17;;;1.75;;
23376;SDS011;14353;46.070;13.222;2023-04-25T00:49:20;1.90;;;1.70;;
23376;SDS011;14353;46.070;13.222;2023-04-25T00:51:46;2.00;;;1.80;;
23376;SDS011;14353;46.070;13.222;2023-04-25T00:54:12;1.75;;;1.65;;
23376;SDS011;14353;46.070;13.222;2023-04-25T00:56:38;2.35;;;1.83;;
23376;SDS011;14353;46.070;13.222;2023-04-25T00:59:04;2.15;;;1.83;;
23376;SDS011;14353;46.070;13.222;2023-04-25T01:01:31;1.90;;;1.70;;
23376;SDS011;14353;46.070;13.222;2023-04-25T01:03:58;2.30;;;1.92;;
23376;SDS011;14353;46.070;13.222;2023-04-25T01:06:24;1.80;;;1.58;;
23376;SDS011;14353;46.070;13.222;2023-04-25T01:08:49;2.00;;;1.70;;
23376;SDS011;14353;46.070;13.222;2023-04-25T01:11:17;2.05;;;1.85;;
23376;SDS011;14353;46.070;13.222;2023-04-25T01:13:42;1.92;;;1.73;;
23376;SDS011;14353;46.070;13.222;2023-04-25T01:16:08;1.70;;;1.60;;
23376;SDS011;14353;46.070;13.222;2023-04-25T01:18:34;1.70;;;1.60;;
23376;SDS011;14353;46.070;13.222;2023-04-25T01:21:10;2.15;;;1.80;;
23376;SDS011;14353;46.070;13.222;2023-04-25T01:23:38;1.70;;;1.60;;
23376;SDS011;14353;46.070;13.222;2023-04-25T01:26:05;2.05;;;1.70;;
23376;SDS011;14353;46.070;13.222;2023-04-25T01:28:33;2.08;;;1.88;;
23376;SDS011;14353;46.070;13.222;2023-04-25T01:31:00;1.90;;;1.73;;
23376;SDS011;14353;46.070;13.222;2023-04-25T01:33:26;2.03;;;1.83;;
23376;SDS011;14353;46.070;13.222;2023-04-25T01:35:52;2.53;;;1.80;;
23376;SDS011;14353;46.070;13.222;2023-04-25T01:38:18;2.38;;;1.80;;
23376;SDS011;14353;46.070;13.222;2023-04-25T01:40:44;2.00;;;1.80;;
23376;SDS011;14353;46.070;13.222;2023-04-25T01:43:11;1.70;;;1.60;;
23376;SDS011;14353;46.070;13.222;2023-04-25T01:45:37;2.65;;;1.85;;
23376;SDS011;14353;46.070;13.222;2023-04-25T01:48:10;1.70;;;1.60;;
23376;SDS011;14353;46.070;13.222;2023-04-25T01:50:37;2.00;;;1.80;;
23376;SDS011;14353;46.070;13.222;2023-04-25T01:53:04;1.70;;;1.60;;
23376;SDS011;14353;46.070;13.222;2023-04-25T01:55:30;1.83;;;1.60;;
23376;SDS011;14353;46.070;13.222;2023-04-25T01:57:56;2.25;;;1.80;;
23376;SDS011;14353;46.070;13.222;2023-04-25T02:00:22;2.33;;;1.77;;
23376;SDS011;14353;46.070;13.222;2023-04-25T02:02:48;1.60;;;1.50;;
23376;SDS011;14353;46.070;13.222;2023-04-25T02:05:15;1.70;;;1.60;;
23376;SDS011;14353;46.070;13.222;2023-04-25T02:07:42;2.13;;;1.90;;
23376;SDS011;14353;46.070;13.222;2023-04-25T02:10:07;1.90;;;1.80;;
23376;SDS011;14353;46.070;13.222;2023-04-25T02:12:35;1.70;;;1.60;;
23376;SDS011;14353;46.070;13.222;2023-04-25T02:15:00;1.85;;;1.70;;
23376;SDS011;14353;46.070;13.222;2023-04-25T02:17:26;1.80;;;1.63;;
23376;SDS011;14353;46.070;13.222;2023-04-25T02:19:52;1.70;;;1.60;;
23376;SDS011;14353;46.070;13.222;2023-04-25T02:22:18;1.70;;;1.60;;
23376;SDS011;14353;46.070;13.222;2023-04-25T02:24:43;1.70;;;1.60;;
23376;SDS011;14353;46.070;13.222;2023-04-25T02:27:09;2.00;;;1.80;;
23376;SDS011;14353;46.070;13.222;2023-04-25T02:29:35;2.65;;;1.58;;
23376;SDS011;14353;46.070;13.222;2023-04-25T02:32:01;2.00;;;1.80;;
23376;SDS011;14353;46.070;13.222;2023-04-25T02:34:27;1.95;;;1.75;;
23376;SDS011;14353;46.070;13.222;2023-04-25T02:36:52;2.35;;;1.98;;
23376;SDS011;14353;46.070;13.222;2023-04-25T02:39:18;1.80;;;1.70;;
23376;SDS011;14353;46.070;13.222;2023-04-25T02:41:44;1.70;;;1.52;;
23376;SDS011;14353;46.070;13.222;2023-04-25T02:44:10;2.10;;;1.90;;
23376;SDS011;14353;46.070;13.222;2023-04-25T02:46:35;1.70;;;1.60;;
23376;SDS011;14353;46.070;13.222;2023-04-25T02:49:01;1.60;;;1.50;;
23376;SDS011;14353;46.070;13.222;2023-04-25T02:51:27;1.60;;;1.50;;
23376;SDS011;14353;46.070;13.222;2023-04-25T02:53:52;1.60;;;1.50;;
23376;SDS011;14353;46.070;13.222;2023-04-25T02:56:18;2.15;;;1.70;;
23376;SDS011;14353;46.070;13.222;2023-04-25T02:58:44;1.98;;;1.73;;
23376;SDS011;14353;46.070;13.222;2023-04-25T03:01:10;1.75;;;1.60;;
23376;SDS011;14353;46.070;13.222;2023-04-25T03:03:36;1.85;;;1.70;;
23376;SDS011;14353;46.070;13.222;2023-04-25T03:06:01;1.90;;;1.73;;
23376;SDS011;14353;46.070;13.222;2023-04-25T03:08:27;1.80;;;1.60;;
23376;SDS011;14353;46.070;13.222;2023-04-25T03:10:57;1.92;;;1.77;;
23376;SDS011;14353;46.070;13.222;2023-04-25T03:13:23;1.80;;;1.70;;
23376;SDS011;14353;46.070;13.222;2023-04-25T03:15:49;2.10;;;1.70;;
23376;SDS011;14353;46.070;13.222;2023-04-25T03:18:15;2.28;;;1.70;;
23376;SDS011;14353;46.070;13.222;2023-04-25T03:20:40;1.70;;;1.60;;
23376;SDS011;14353;46.070;13.222;2023-04-25T03:23:06;1.83;;;1.63;;
23376;SDS011;14353;46.070;13.222;2023-04-25T03:25:32;1.90;;;1.70;;
23376;SDS011;14353;46.070;13.222;2023-04-25T03:27:58;1.70;;;1.60;;
23376;SDS011;14353;46.070;13.222;2023-04-25T03:30:23;1.90;;;1.52;;
23376;SDS011;14353;46.070;13.222;2023-04-25T03:32:49;1.60;;;1.50;;
23376;SDS011;14353;46.070;13.222;2023-04-25T03:35:15;1.70;;;1.58;;
23376;SDS011;14353;46.070;13.222;2023-04-25T03:37:41;1.70;;;1.60;;
23376;SDS011;14353;46.070;13.222;2023-04-25T03:40:10;2.13;;;1.60;;
23376;SDS011;14353;46.070;13.222;2023-04-25T03:42:36;1.73;;;1.48;;
23376;SDS011;14353;46.070;13.222;2023-04-25T03:45:04;1.80;;;1.52;;
23376;SDS011;14353;46.070;13.222;2023-04-25T03:47:31;1.70;;;1.60;;
23376;SDS011;14353;46.070;13.222;2023-04-25T03:49:56;1.63;;;1.50;;
23376;SDS011;14353;46.070;13.222;2023-04-25T03:52:22;1.50;;;1.40;;
23376;SDS011;14353;46.070;13.222;2023-04-25T03:54:48;1.95;;;1.60;;
23376;SDS011;14353;46.070;13.222;2023-04-25T03:57:13;1.70;;;1.60;;
23376;SDS011;14353;46.070;13.222;2023-04-25T03:59:39;1.67;;;1.58;;
23376;SDS011;14353;46.070;13.222;2023-04-25T04:02:05;2.20;;;1.63;;
23376;SDS011;14353;46.070;13.222;2023-04-25T04:04:31;1.80;;;1.70;;
23376;SDS011;14353;46.070;13.222;2023-04-25T04:06:56;1.67;;;1.58;;
23376;SDS011;14353;46.070;13.222;2023-04-25T04:09:22;1.60;;;1.48;;
23376;SDS011;14353;46.070;13.222;2023-04-25T04:11:48;2.00;;;1.65;;
23376;SDS011;14353;46.070;13.222;2023-04-25T04:14:13;1.70;;;1.60;;
23376;SDS011;14353;46.070;13.222;2023-04-25T04:16:39;1.98;;;1.73;;
23376;SDS011;14353;46.070;13.222;2023-04-25T04:19:05;1.73;;;1.40;;
23376;SDS011;14353;46.070;13.222;2023-04-25T04:21:31;1.48;;;1.38;;
23376;SDS011;14353;46.070;13.222;2023-04-25T04:23:57;1.70;;;1.60;;
23376;SDS011;14353;46.070;13.222;2023-04-25T04:26:24;1.50;;;1.40;;
23376;SDS011;14353;46.070;13.222;2023-04-25T04:28:51;1.70;;;1.60;;
23376;SDS011;14353;46.070;13.222;2023-04-25T04:31:19;2.05;;;1.85;;
23376;SDS011;14353;46.070;13.222;2023-04-25T04:33:47;1.65;;;1.55;;
23376;SDS011;14353;46.070;13.222;2023-04-25T04:36:13;1.63;;;1.50;;
23376;SDS011;14353;46.070;13.222;2023-04-25T04:38:39;1.63;;;1.52;;
23376;SDS011;14353;46.070;13.222;2023-04-25T04:41:06;1.90;;;1.50;;
23376;SDS011;14353;46.070;13.222;2023-04-25T04:43:32;1.58;;;1.48;;
23376;SDS011;14353;46.070;13.222;2023-04-25T04:45:58;2.22;;;1.70;;
23376;SDS011;14353;46.070;13.222;2023-04-25T04:48:25;1.75;;;1.45;;
23376;SDS011;14353;46.070;13.222;2023-04-25T04:50:51;1.73;;;1.60;;
23376;SDS011;14353;46.070;13.222;2023-04-25T04:53:17;1.65;;;1.55;;
23376;SDS011;14353;46.070;13.222;2023-04-25T04:55:43;1.40;;;1.30;;
23376;SDS011;14353;46.070;13.222;2023-04-25T04:58:09;1.58;;;1.48;;
23376;SDS011;14353;46.070;13.222;2023-04-25T05:00:35;1.55;;;1.45;;
23376;SDS011;14353;46.070;13.222;2023-04-25T05:03:00;2.03;;;1.40;;
23376;SDS011;14353;46.070;13.222;2023-04-25T05:05:26;1.55;;;1.40;;
23376;SDS011;14353;46.070;13.222;2023-04-25T05:07:52;1.60;;;1.50;;
23376;SDS011;14353;46.070;13.222;2023-04-25T05:10:18;1.92;;;1.50;;
23376;SDS011;14353;46.070;13.222;2023-04-25T05:12:44;1.50;;;1.40;;
23376;SDS011;14353;46.070;13.222;2023-04-25T05:15:10;1.67;;;1.35;;
23376;SDS011;14353;46.070;13.222;2023-04-25T05:17:36;1.40;;;1.30;;
23376;SDS011;14353;46.070;13.222;2023-04-25T05:20:02;1.85;;;1.42;;
23376;SDS011;14353;46.070;13.222;2023-04-25T05:22:30;1.55;;;1.40;;
23376;SDS011;14353;46.070;13.222;2023-04-25T05:24:56;1.90;;;1.60;;
23376;SDS011;14353;46.070;13.222;2023-04-25T05:27:22;1.70;;;1.60;;
23376;SDS011;14353;46.070;13.222;2023-04-25T05:29:47;1.52;;;1.42;;
23376;SDS011;14353;46.070;13.222;2023-04-25T05:32:13;1.58;;;1.42;;
23376;SDS011;14353;46.070;13.222;2023-04-25T05:34:39;2.03;;;1.40;;
23376;SDS011;14353;46.070;13.222;2023-04-25T05:37:05;1.67;;;1.40;;
23376;SDS011;14353;46.070;13.222;2023-04-25T05:39:31;1.40;;;1.20;;
23376;SDS011;14353;46.070;13.222;2023-04-25T05:41:56;1.40;;;1.30;;
23376;SDS011;14353;46.070;13.222;2023-04-25T05:44:22;1.40;;;1.30;;
23376;SDS011;14353;46.070;13.222;2023-04-25T05:46:48;1.50;;;1.40;;
23376;SDS011;14353;46.070;13.222;2023-04-25T05:49:15;1.70;;;1.52;;
23376;SDS011;14353;46.070;13.222;2023-04-25T05:51:41;1.63;;;1.30;;
23376;SDS011;14353;46.070;13.222;2023-04-25T05:54:06;2.38;;;1.75;;
23376;SDS011;14353;46.070;13.222;2023-04-25T05:56:32;1.50;;;1.33;;
23376;SDS011;14353;46.070;13.222;2023-04-25T05:58:58;1.40;;;1.30;;
23376;SDS011;14353;46.070;13.222;2023-04-25T06:01:23;1.67;;;1.40;;
23376;SDS011;14353;46.070;13.222;2023-04-25T06:03:49;1.60;;;1.50;;
23376;SDS011;14353;46.070;13.222;2023-04-25T06:06:17;1.30;;;1.20;;
23376;SDS011;14353;46.070;13.222;2023-04-25T06:08:43;1.45;;;1.30;;
23376;SDS011;14353;46.070;13.222;2023-04-25T06:11:09;1.63;;;1.52;;
23376;SDS011;14353;46.070;13.222;2023-04-25T06:13:35;1.77;;;1.40;;
23376;SDS011;14353;46.070;13.222;2023-04-25T06:16:01;1.98;;;1.50;;
23376;SDS011;14353;46.070;13.222;2023-04-25T06:18:27;1.60;;;1.50;;
23376;SDS011;14353;46.070;13.222;2023-04-25T06:20:52;1.45;;;1.35;;
23376;SDS011;14353;46.070;13.222;2023-04-25T06:23:18;1.40;;;1.30;;
23376;SDS011;14353;46.070;13.222;2023-04-25T06:25:44;1.40;;;1.30;;
23376;SDS011;14353;46.070;13.222;2023-04-25T06:28:09;1.48;;;1.35;;
23376;SDS011;14353;46.070;13.222;2023-04-25T06:30:35;1.58;;;1.48;;
23376;SDS011;14353;46.070;13.222;2023-04-25T06:33:01;1.50;;;1.40;;
23376;SDS011;14353;46.070;13.222;2023-04-25T06:35:26;1.40;;;1.13;;
23376;SDS011;14353;46.070;13.222;2023-04-25T06:37:52;1.80;;;1.40;;
23376;SDS011;14353;46.070;13.222;2023-04-25T06:40:18;1.17;;;1.08;;
23376;SDS011;14353;46.070;13.222;2023-04-25T06:42:43;1.75;;;1.33;;
23376;SDS011;14353;46.070;13.222;2023-04-25T06:45:09;1.23;;;1.13;;
23376;SDS011;14353;46.070;13.222;2023-04-25T06:47:35;1.95;;;1.33;;
23376;SDS011;14353;46.070;13.222;2023-04-25T06:50:01;1.40;;;1.30;;
23376;SDS011;14353;46.070;13.222;2023-04-25T06:52:27;1.35;;;1.17;;
23376;SDS011;14353;46.070;13.222;2023-04-25T06:54:52;1.33;;;1.23;;
23376;SDS011;14353;46.070;13.222;2023-04-25T06:57:18;1.50;;;1.40;;
23376;SDS011;14353;46.070;13.222;2023-04-25T06:59:44;1.77;;;1.48;;
23376;SDS011;14353;46.070;13.222;2023-04-25T07:02:10;1.40;;;1.30;;
23376;SDS011;14353;46.070;13.222;2023-04-25T07:04:35;1.48;;;1.38;;
23376;SDS011;14353;46.070;13.222;2023-04-25T07:07:01;0.98;;;0.90;;
23376;SDS011;14353;46.070;13.222;2023-04-25T07:09:28;1.42;;;1.33;;
23376;SDS011;14353;46.070;13.222;2023-04-25T07:11:54;1.20;;;1.10;;
23376;SDS011;14353;46.070;13.222;2023-04-25T07:14:20;1.40;;;1.30;;
23376;SDS011;14353;46.070;13.222;2023-04-25T07:16:45;1.70;;;1.33;;
23376;SDS011;14353;46.070;13.222;2023-04-25T07:19:11;1.13;;;1.02;;
23376;SDS011;14353;46.070;13.222;2023-04-25T07:21:37;1.60;;;1.20;;
23376;SDS011;14353;46.070;13.222;2023-04-25T07:24:03;1.08;;;1.00;;
23376;SDS011;14353;46.070;13.222;2023-04-25T07:26:28;1.30;;;1.20;;
23376;SDS011;14353;46.070;13.222;2023-04-25T07:28:54;1.30;;;1.20;;
23376;SDS011;14353;46.070;13.222;2023-04-25T07:31:20;1.88;;;1.40;;
23376;SDS011;14353;46.070;13.222;2023-04-25T07:33:47;1.35;;;1.25;;
23376;SDS011;14353;46.070;13.222;2023-04-25T07:36:12;1.23;;;1.13;;
23376;SDS011;14353;46.070;13.222;2023-04-25T07:38:40;1.33;;;1.20;;
23376;SDS011;14353;46.070;13.222;2023-04-25T07:41:05;1.17;;;1.08;;
23376;SDS011;14353;46.070;13.222;2023-04-25T07:43:31;1.30;;;1.20;;
23376;SDS011;14353;46.070;13.222;2023-04-25T07:45:57;1.20;;;1.10;;
23376;SDS011;14353;46.070;13.222;2023-04-25T07:48:23;1.48;;;1.30;;
23376;SDS011;14353;46.070;13.222;2023-04-25T07:50:48;1.20;;;1.10;;
23376;SDS011;14353;46.070;13.222;2023-04-25T07:53:14;1.20;;;1.10;;
23376;SDS011;14353;46.070;13.222;2023-04-25T07:55:42;1.08;;;1.00;;
23376;SDS011;14353;46.070;13.222;2023-04-25T07:58:08;1.33;;;1.20;;
23376;SDS011;14353;46.070;13.222;2023-04-25T08:00:35;1.20;;;1.10;;
23376;SDS011;14353;46.070;13.222;2023-04-25T08:03:01;1.20;;;1.10;;
23376;SDS011;14353;46.070;13.222;2023-04-25T08:05:27;3.50;;;1.13;;
23376;SDS011;14353;46.070;13.222;2023-04-25T08:07:54;1.30;;;1.20;;
23376;SDS011;14353;46.070;13.222;2023-04-25T08:10:22;1.30;;;1.20;;
23376;SDS011;14353;46.070;13.222;2023-04-25T08:12:48;1.30;;;1.20;;
23376;SDS011;14353;46.070;13.222;2023-04-25T08:15:14;1.27;;;1.10;;
23376;SDS011;14353;46.070;13.222;2023-04-25T08:17:40;1.05;;;0.95;;
23376;SDS011;14353;46.070;13.222;2023-04-25T08:20:06;1.10;;;1.00;;
23376;SDS011;14353;46.070;13.222;2023-04-25T08:22:32;1.23;;;1.13;;
23376;SDS011;14353;46.070;13.222;2023-04-25T08:24:58;1.10;;;1.10;;
23376;SDS011;14353;46.070;13.222;2023-04-25T08:27:24;1.10;;;1.00;;
23376;SDS011;14353;46.070;13.222;2023-04-25T08:29:50;1.20;;;1.10;;
23376;SDS011;14353;46.070;13.222;2023-04-25T08:32:16;1.08;;;0.98;;
23376;SDS011;14353;46.070;13.222;2023-04-25T08:34:42;1.27;;;1.17;;
23376;SDS011;14353;46.070;13.222;2023-04-25T08:37:09;1.23;;;1.08;;
23376;SDS011;14353;46.070;13.222;2023-04-25T08:39:35;0.93;;;0.90;;
23376;SDS011;14353;46.070;13.222;2023-04-25T08:42:05;1.20;;;1.10;;
23376;SDS011;14353;46.070;13.222;2023-04-25T08:44:35;1.17;;;1.08;;
23376;SDS011;14353;46.070;13.222;2023-04-25T08:47:02;1.25;;;1.15;;
23376;SDS011;14353;46.070;13.222;2023-04-25T08:49:33;0.90;;;0.90;;
23376;SDS011;14353;46.070;13.222;2023-04-25T08:52:00;1.10;;;1.00;;
23376;SDS011;14353;46.070;13.222;2023-04-25T08:54:28;1.17;;;0.98;;
23376;SDS011;14353;46.070;13.222;2023-04-25T08:56:56;1.08;;;0.98;;
23376;SDS011;14353;46.070;13.222;2023-04-25T08:59:23;1.23;;;0.98;;
23376;SDS011;14353;46.070;13.222;2023-04-25T09:01:49;1.00;;;0.95;;
23376;SDS011;14353;46.070;13.222;2023-04-25T09:04:15;1.15;;;1.00;;
23376;SDS011;14353;46.070;13.222;2023-04-25T09:06:40;1.35;;;1.00;;
23376;SDS011;14353;46.070;13.222;2023-04-25T09:09:07;0.82;;;0.82;;
23376;SDS011;14353;46.070;13.222;2023-04-25T09:11:34;1.10;;;1.00;;
23376;SDS011;14353;46.070;13.222;2023-04-25T09:14:17;1.08;;;0.98;;
23376;SDS011;14353;46.070;13.222;2023-04-25T09:19:28;1.30;;;1.20;;
23376;SDS011;14353;46.070;13.222;2023-04-25T09:21:59;1.10;;;1.00;;
23376;SDS011;14353;46.070;13.222;2023-04-25T09:24:30;1.00;;;0.90;;
23376;SDS011;14353;46.070;13.222;2023-04-25T09:26:58;1.10;;;0.90;;
23376;SDS011;14353;46.070;13.222;2023-04-25T09:29:34;1.15;;;1.05;;
23376;SDS011;14353;46.070;13.222;2023-04-25T09:32:15;1.05;;;0.98;;
23376;SDS011;14353;46.070;13.222;2023-04-25T09:34:41;1.10;;;1.00;;
23376;SDS011;14353;46.070;13.222;2023-04-25T09:37:08;1.10;;;0.98;;
23376;SDS011;14353;46.070;13.222;2023-04-25T09:39:36;1.98;;;1.00;;
23376;SDS011;14353;46.070;13.222;2023-04-25T09:42:03;1.00;;;0.90;;
23376;SDS011;14353;46.070;13.222;2023-04-25T09:44:29;1.20;;;1.10;;
23376;SDS011;14353;46.070;13.222;2023-04-25T09:46:55;0.80;;;0.80;;
23376;SDS011;14353;46.070;13.222;2023-04-25T09:49:20;1.20;;;0.90;;
23376;SDS011;14353;46.070;13.222;2023-04-25T09:51:56;1.27;;;1.17;;
23376;SDS011;14353;46.070;13.222;2023-04-25T09:54:25;1.10;;;0.98;;
23376;SDS011;14353;46.070;13.222;2023-04-25T09:56:52;0.90;;;0.90;;
23376;SDS011;14353;46.070;13.222;2023-04-25T09:59:22;1.10;;;1.00;;
23376;SDS011;14353;46.070;13.222;2023-04-25T10:01:49;1.13;;;1.02;;
23376;SDS011;14353;46.070;13.222;2023-04-25T10:04:22;1.20;;;1.10;;
23376;SDS011;14353;46.070;13.222;2023-04-25T10:06:51;1.10;;;1.00;;
23376;SDS011;14353;46.070;13.222;2023-04-25T10:09:21;1.20;;;1.00;;
23376;SDS011;14353;46.070;13.222;2023-04-25T10:11:50;1.10;;;1.00;;
23376;SDS011;14353;46.070;13.222;2023-04-25T10:14:17;1.05;;;0.95;;
23376;SDS011;14353;46.070;13.222;2023-04-25T10:16:44;0.90;;;0.90;;
23376;SDS011;14353;46.070;13.222;2023-04-25T10:19:10;1.40;;;0.95;;
23376;SDS011;14353;46.070;13.222;2023-04-25T10:21:40;1.10;;;1.00;;
23376;SDS011;14353;46.070;13.222;2023-04-25T10:24:15;1.02;;;0.90;;
23376;SDS011;14353;46.070;13.222;2023-04-25T10:26:41;1.20;;;0.90;;
23376;SDS011;14353;46.070;13.222;2023-04-25T10:29:07;0.90;;;0.90;;
23376;SDS011;14353;46.070;13.222;2023-04-25T10:31:34;0.90;;;0.90;;
23376;SDS011;14353;46.070;13.222;2023-04-25T10:34:11;1.20;;;1.10;;
23376;SDS011;14353;46.070;13.222;2023-04-25T10:36:37;1.05;;;0.95;;
23376;SDS011;14353;46.070;13.222;2023-04-25T10:39:04;1.08;;;0.98;;
23376;SDS011;14353;46.070;13.222;2023-04-25T10:41:46;0.90;;;0.90;;
23376;SDS011;14353;46.070;13.222;2023-04-25T10:44:15;0.85;;;0.85;;
23376;SDS011;14353;46.070;13.222;2023-04-25T10:46:41;1.50;;;1.00;;
23376;SDS011;14353;46.070;13.222;2023-04-25T10:49:09;1.25;;;0.80;;
23376;SDS011;14353;46.070;13.222;2023-04-25T10:51:37;0.80;;;0.80;;
23376;SDS011;14353;46.070;13.222;2023-04-25T10:54:07;1.27;;;1.08;;
23376;SDS011;14353;46.070;13.222;2023-04-25T10:56:37;1.60;;;0.90;;
23376;SDS011;14353;46.070;13.222;2023-04-25T11:01:44;1.10;;;1.00;;
23376;SDS011;14353;46.070;13.222;2023-04-25T11:10:03;0.80;;;0.80;;
23376;SDS011;14353;46.070;13.222;2023-04-25T11:12:30;1.00;;;0.90;;
23376;SDS011;14353;46.070;13.222;2023-04-25T11:15:00;0.95;;;0.90;;
23376;SDS011;14353;46.070;13.222;2023-04-25T11:17:32;0.90;;;0.90;;
23376;SDS011;14353;46.070;13.222;2023-04-25T11:19:58;0.95;;;0.93;;
23376;SDS011;14353;46.070;13.222;2023-04-25T11:22:26;0.88;;;0.88;;
23376;SDS011;14353;46.070;13.222;2023-04-25T11:24:52;1.00;;;0.90;;
23376;SDS011;14353;46.070;13.222;2023-04-25T11:27:18;1.05;;;0.90;;
23376;SDS011;14353;46.070;13.222;2023-04-25T11:29:44;0.90;;;0.90;;
23376;SDS011;14353;46.070;13.222;2023-04-25T11:32:12;1.00;;;1.00;;
23376;SDS011;14353;46.070;13.222;2023-04-25T11:34:42;0.80;;;0.80;;
23376;SDS011;14353;46.070;13.222;2023-04-25T11:37:09;1.15;;;1.05;;
23376;SDS011;14353;46.070;13.222;2023-04-25T11:39:36;1.10;;;0.90;;
23376;SDS011;14353;46.070;13.222;2023-04-25T11:42:03;1.10;;;1.00;;
23376;SDS011;14353;46.070;13.222;2023-04-25T11:44:30;1.10;;;0.95;;
23376;SDS011;14353;46.070;13.222;2023-04-25T11:46:56;0.98;;;0.90;;
23376;SDS011;14353;46.070;13.222;2023-04-25T11:49:22;0.88;;;0.85;;
23376;SDS011;14353;46.070;13.222;2023-04-25T11:51:49;0.80;;;0.80;;
23376;SDS011;14353;46.070;13.222;2023-04-25T11:54:15;0.90;;;0.90;;
23376;SDS011;14353;46.070;13.222;2023-04-25T11:56:41;0.93;;;0.90;;
23376;SDS011;14353;46.070;13.222;2023-04-25T11:59:10;0.80;;;0.80;;
23376;SDS011;14353;46.070;13.222;2023-04-25T12:01:38;0.88;;;0.88;;
23376;SDS011;14353;46.070;13.222;2023-04-25T12:06:41;0.80;;;0.80;;
23376;SDS011;14353;46.070;13.222;2023-04-25T12:09:08;1.15;;;1.00;;
23376;SDS011;14353;46.070;13.222;2023-04-25T12:11:41;1.10;;;0.90;;
23376;SDS011;14353;46.070;13.222;2023-04-25T12:14:11;0.97;;;0.90;;
23376;SDS011;14353;46.070;13.222;2023-04-25T12:16:41;0.80;;;0.80;;
23376;SDS011;14353;46.070;13.222;2023-04-25T12:19:15;0.80;;;0.80;;
23376;SDS011;14353;46.070;13.222;2023-04-25T12:21:41;1.02;;;0.90;;
23376;SDS011;14353;46.070;13.222;2023-04-25T12:29:29;1.00;;;0.90;;
23376;SDS011;14353;46.070;13.222;2023-04-25T12:31:57;0.80;;;0.80;;
23376;SDS011;14353;46.070;13.222;2023-04-25T12:34:24;0.80;;;0.80;;
23376;SDS011;14353;46.070;13.222;2023-04-25T12:36:50;0.80;;;0.80;;
23376;SDS011;14353;46.070;13.222;2023-04-25T12:39:17;1.00;;;0.90;;
23376;SDS011;14353;46.070;13.222;2023-04-25T12:41:44;0.90;;;0.82;;
23376;SDS011;14353;46.070;13.222;2023-04-25T12:44:11;0.93;;;0.90;;
23376;SDS011;14353;46.070;13.222;2023-04-25T12:46:37;1.10;;;0.90;;
23376;SDS011;14353;46.070;13.222;2023-04-25T12:49:03;1.05;;;1.00;;
23376;SDS011;14353;46.070;13.222;2023-04-25T12:51:31;1.10;;;1.00;;
23376;SDS011;14353;46.070;13.222;2023-04-25T12:53:58;0.80;;;0.80;;
23376;SDS011;14353;46.070;13.222;2023-04-25T12:56:25;0.80;;;0.80;;
23376;SDS011;14353;46.070;13.222;2023-04-25T12:58:52;0.82;;;0.82;;
23376;SDS011;14353;46.070;13.222;2023-04-25T13:01:18;0.90;;;0.85;;
23376;SDS011;14353;46.070;13.222;2023-04-25T13:03:45;0.70;;;0.70;;
23376;SDS011;14353;46.070;13.222;2023-04-25T13:06:11;1.13;;;1.00;;
23376;SDS011;14353;46.070;13.222;2023-04-25T13:08:38;0.90;;;0.90;;
23376;SDS011;14353;46.070;13.222;2023-04-25T13:11:04;1.42;;;1.00;;
23376;SDS011;14353;46.070;13.222;2023-04-25T13:13:30;1.27;;;0.95;;
23376;SDS011;14353;46.070;13.222;2023-04-25T13:16:00;1.00;;;0.90;;
23376;SDS011;14353;46.070;13.222;2023-04-25T13:18:27;0.70;;;0.70;;
23376;SDS011;14353;46.070;13.222;2023-04-25T13:20:53;0.80;;;0.80;;
23376;SDS011;14353;46.070;13.222;2023-04-25T13:23:19;0.82;;;0.82;;
23376;SDS011;14353;46.070;13.222;2023-04-25T13:25:45;1.00;;;0.90;;
23376;SDS011;14353;46.070;13.222;2023-04-25T13:28:12;1.17;;;0.90;;
23376;SDS011;14353;46.070;13.222;2023-04-25T13:30:37;0.80;;;0.80;;
23376;SDS011;14353;46.070;13.222;2023-04-25T13:33:03;1.23;;;0.80;;
23376;SDS011;14353;46.070;13.222;2023-04-25T13:35:31;0.93;;;0.90;;
23376;SDS011;14353;46.070;13.222;2023-04-25T13:37:58;0.80;;;0.80;;
23376;SDS011;14353;46.070;13.222;2023-04-25T13:40:24;0.88;;;0.88;;
23376;SDS011;14353;46.070;13.222;2023-04-25T13:42:51;0.88;;;0.80;;
23376;SDS011;14353;46.070;13.222;2023-04-25T13:45:17;1.00;;;0.90;;
23376;SDS011;14353;46.070;13.222;2023-04-25T13:47:43;1.20;;;0.85;;
23376;SDS011;14353;46.070;13.222;2023-04-25T13:50:09;0.80;;;0.80;;
23376;SDS011;14353;46.070;13.222;2023-04-25T13:52:35;0.80;;;0.80;;
23376;SDS011;14353;46.070;13.222;2023-04-25T13:55:01;1.10;;;0.95;;
23376;SDS011;14353;46.070;13.222;2023-04-25T13:57:29;0.80;;;0.80;;
23376;SDS011;14353;46.070;13.222;2023-04-25T13:59:55;0.80;;;0.80;;
23376;SDS011;14353;46.070;13.222;2023-04-25T14:02:21;0.90;;;0.90;;
23376;SDS011;14353;46.070;13.222;2023-04-25T14:04:47;0.77;;;0.77;;
23376;SDS011;14353;46.070;13.222;2023-04-25T14:07:13;0.88;;;0.80;;
23376;SDS011;14353;46.070;13.222;2023-04-25T14:09:41;0.90;;;0.80;;
23376;SDS011;14353;46.070;13.222;2023-04-25T14:12:07;1.48;;;1.17;;
23376;SDS011;14353;46.070;13.222;2023-04-25T14:14:33;1.10;;;0.88;;
23376;SDS011;14353;46.070;13.222;2023-04-25T14:16:58;1.48;;;0.82;;
23376;SDS011;14353;46.070;13.222;2023-04-25T14:19:24;0.98;;;0.90;;
23376;SDS011;14353;46.070;13.222;2023-04-25T14:21:50;0.90;;;0.80;;
23376;SDS011;14353;46.070;13.222;2023-04-25T14:24:16;0.70;;;0.70;;
23376;SDS011;14353;46.070;13.222;2023-04-25T14:26:42;1.00;;;0.90;;
23376;SDS011;14353;46.070;13.222;2023-04-25T14:29:09;0.73;;;0.73;;
23376;SDS011;14353;46.070;13.222;2023-04-25T14:31:37;1.27;;;0.80;;
23376;SDS011;14353;46.070;13.222;2023-04-25T14:34:04;1.00;;;0.82;;
23376;SDS011;14353;46.070;13.222;2023-04-25T14:36:30;0.93;;;0.90;;
23376;SDS011;14353;46.070;13.222;2023-04-25T14:39:00;0.90;;;0.90;;
23376;SDS011;14353;46.070;13.222;2023-04-25T14:41:25;0.80;;;0.80;;
23376;SDS011;14353;46.070;13.222;2023-04-25T14:43:52;0.60;;;0.60;;
23376;SDS011;14353;46.070;13.222;2023-04-25T14:46:20;0.75;;;0.75;;
23376;SDS011;14353;46.070;13.222;2023-04-25T14:48:48;0.80;;;0.80;;